KSGR/SGR METAR and TAF weather

Enter ICAO airport designator
Station Type Date Time Source
KSGR METAR 2020/07/11 19:53 UTC NOAA

KSGR 111953Z 23006KT 10SM CLR 36/23 A2999 RMK AO2 SLP156 T03610233


Station Type Date Time Source
KSGR Decoded METAR 2020/07/11 19:53 UTC NOAA

SUGARLAND REGIONAL AIRPORT, TX, United States (KSGR) 29-37N 095-39W
Jul 11, 2020 - 03:53 PM EDT / 2020.07.11 1953 UTC
Wind: from the SW (230 degrees) at 7 MPH (6 KT):0
Visibility: 10 mile(s):0
Sky conditions: clear
Temperature: 97.0 F (36.1 C)
Heat index: 107.8 F (42.1 C):1
Dew Point: 73.9 F (23.3 C)
Relative Humidity: 47%
Pressure (altimeter): 29.99 in. Hg (1015 hPa)
ob: KSGR 111953Z 23006KT 10SM CLR 36/23 A2999 RMK AO2 SLP156 T03610233
cycle: 20

Station Type Date Time Source
KSGR TAF 2020/07/11 18:33 UTC NOAA

TAF KSGR 111730Z 1118/1218 25006KT P6SM FEW035
FM120100 VRB04KT P6SM SKC
FM120600 VRB05KT P6SM SCT015
FM121500 24008KT P6SM FEW250

Example: see airport list